Time;durP1;ratioP1;P1;durP2;ratioP2;P2;SDS_P1;SDS_P2;PMS_P1;PMS_P2;Temp;Humidity;BMP_temperature;BMP_pressure;BME280_temperature;BME280_humidity;BME280_pressure;Samples;Min_cycle;Max_cycle;Signal;HPM_P1;HPM_P2
2022/03/21 00:02:11;;;;;;;0.20;0.20;;;;;;;3.86;60.09;102793.88;5026920;28;20068;-81
2022/03/21 00:04:45;;;;;;;0.30;0.30;;;;;;;3.89;58.80;102798.06;5023960;28;20045;-80
2022/03/21 00:07:18;;;;;;;0.20;0.20;;;;;;;3.93;58.16;102802.06;5019658;28;20411;-80
2022/03/21 00:09:46;;;;;;;0.30;0.30;;;;;;;3.89;60.23;102803.47;5007072;28;20054;-80
2022/03/21 00:12:14;;;;;;;0.20;0.20;;;;;;;3.83;59.00;102793.44;5017859;28;20045;-80
2022/03/21 00:14:47;;;;;;;0.20;0.20;;;;;;;3.81;59.13;102790.06;5016931;28;20072;-81
2022/03/21 00:17:22;;;;;;;0.20;0.20;;;;;;;3.84;59.60;102795.94;5024066;28;21670;-79
2022/03/21 00:19:56;;;;;;;0.20;0.20;;;;;;;3.80;60.69;102789.25;5018489;28;20064;-81
2022/03/21 00:22:29;;;;;;;0.20;0.20;;;;;;;3.79;61.24;102778.66;5015111;28;20057;-81
2022/03/21 00:25:02;;;;;;;0.20;0.20;;;;;;;3.74;61.43;102789.97;5020566;28;20057;-80
2022/03/21 00:27:37;;;;;;;0.30;0.30;;;;;;;3.68;61.35;102769.16;5014223;28;20045;-81
2022/03/21 00:30:14;;;;;;;0.20;0.20;;;;;;;3.76;59.61;102785.25;5019748;28;20046;-81
2022/03/21 00:32:49;;;;;;;0.22;0.22;;;;;;;3.74;61.72;102781.88;5013680;28;20050;-81
2022/03/21 00:35:23;;;;;;;0.22;0.22;;;;;;;3.79;59.49;102781.34;5020734;28;20584;-81
2022/03/21 00:37:56;;;;;;;0.20;0.20;;;;;;;3.81;60.01;102785.53;5013951;28;20056;-81
2022/03/21 00:40:30;;;;;;;0.20;0.20;;;;;;;3.83;58.96;102788.03;5023873;28;20081;-80
2022/03/21 00:42:59;;;;;;;0.20;0.20;;;;;;;3.88;59.26;102785.63;5012541;28;20057;-81
2022/03/21 00:45:32;;;;;;;0.20;0.20;;;;;;;3.87;57.63;102784.78;5019630;28;20053;-80
2022/03/21 00:48:07;;;;;;;0.20;0.20;;;;;;;3.86;57.88;102793.06;5014740;28;20065;-80
2022/03/21 00:50:40;;;;;;;0.40;0.22;;;;;;;3.79;59.50;102781.34;5014971;28;20042;-80
2022/03/21 00:53:15;;;;;;;0.20;0.20;;;;;;;3.78;59.51;102785.06;5010802;28;20056;-81
2022/03/21 00:55:50;;;;;;;0.20;0.20;;;;;;;3.84;58.03;102781.63;5026205;28;20741;-80
2022/03/21 00:58:23;;;;;;;0.20;0.20;;;;;;;3.79;59.54;102779.47;5021456;28;20049;-79
2022/03/21 01:00:51;;;;;;;0.22;0.22;;;;;;;3.75;58.91;102776.31;5014863;28;20406;-80
2022/03/21 01:03:25;;;;;;;0.20;0.20;;;;;;;3.74;60.41;102771.97;5021169;28;20057;-80
2022/03/21 01:05:54;;;;;;;0.20;0.20;;;;;;;3.80;60.34;102775.78;5029045;28;20057;-81
2022/03/21 01:08:27;;;;;;;0.30;0.30;;;;;;;3.78;57.60;102772.41;5025089;28;20132;-81
2022/03/21 01:11:00;;;;;;;0.30;0.30;;;;;;;3.68;57.92;102753.00;5012139;28;20058;-80
2022/03/21 01:13:35;;;;;;;0.20;0.20;;;;;;;3.79;59.36;102770.56;5025979;28;20049;-81
2022/03/21 01:16:08;;;;;;;0.20;0.20;;;;;;;3.72;59.44;102773.16;5020961;28;20378;-81
2022/03/21 01:18:38;;;;;;;0.20;0.20;;;;;;;3.70;59.00;102769.78;5019183;28;20050;-80
2022/03/21 01:21:11;;;;;;;0.20;0.20;;;;;;;3.64;58.29;102765.97;5025308;28;20053;-80
2022/03/21 01:23:40;;;;;;;0.20;0.20;;;;;;;3.64;59.44;102757.06;5023949;28;20049;-80
2022/03/21 01:26:13;;;;;;;0.20;0.20;;;;;;;3.62;59.98;102767.19;5040198;28;20053;-80
2022/03/21 01:28:46;;;;;;;0.28;0.28;;;;;;;3.48;59.46;102763.44;5022021;28;20050;-81
2022/03/21 01:31:19;;;;;;;0.20;0.20;;;;;;;3.55;61.79;102772.47;5026879;28;20049;-80
2022/03/21 01:33:54;;;;;;;0.20;0.20;;;;;;;3.51;59.56;102760.41;5027307;28;20491;-80
2022/03/21 01:36:28;;;;;;;0.20;0.20;;;;;;;3.49;60.33;102765.94;5025116;28;20050;-79
2022/03/21 01:39:01;;;;;;;0.20;0.20;;;;;;;3.45;60.39;102759.22;5031192;28;20498;-80
2022/03/21 01:41:29;;;;;;;1.20;0.30;;;;;;;3.43;61.89;102769.34;5033020;28;20052;-80
2022/03/21 01:44:06;;;;;;;0.30;0.30;;;;;;;3.34;63.21;102771.28;5024032;28;20482;-80
2022/03/21 01:46:40;;;;;;;0.20;0.20;;;;;;;3.39;64.57;102768.03;5017894;28;20519;-80
2022/03/21 01:49:15;;;;;;;0.20;0.20;;;;;;;3.39;60.28;102768.03;5022347;28;20403;-80
2022/03/21 01:51:50;;;;;;;0.20;0.20;;;;;;;3.36;64.61;102766.56;5025472;28;20057;-79
2022/03/21 01:57:10;;;;;;;0.20;0.20;;;;;;;3.28;61.94;102749.63;5035009;28;20053;-79
2022/03/21 01:59:40;;;;;;;0.20;0.20;;;;;;;3.41;60.76;102766.00;5028818;28;20045;-80
2022/03/21 02:02:08;;;;;;;0.20;0.20;;;;;;;3.23;61.91;102745.63;5028406;28;20056;-80
2022/03/21 02:04:43;;;;;;;0.30;0.30;;;;;;;3.30;62.82;102769.97;5029364;28;20459;-80
2022/03/21 02:07:11;;;;;;;0.25;0.25;;;;;;;3.29;63.09;102770.16;5023378;28;20046;-80
2022/03/21 02:09:45;;;;;;;0.20;0.20;;;;;;;3.28;61.76;102760.41;5028002;28;20065;-79
2022/03/21 02:12:13;;;;;;;0.20;0.20;;;;;;;3.27;63.06;102770.31;5033515;28;20037;-80
2022/03/21 02:14:47;;;;;;;0.20;0.20;;;;;;;3.27;63.69;102772.16;5029628;28;20060;-80
2022/03/21 02:17:19;;;;;;;0.20;0.20;;;;;;;3.16;65.85;102762.66;5017015;28;20065;-80
2022/03/21 02:19:57;;;;;;;0.52;0.30;;;;;;;3.11;67.48;102762.34;5022546;28;20049;-80
2022/03/21 02:22:38;;;;;;;0.20;0.20;;;;;;;3.11;65.38;102765.03;5027430;28;20044;-80
2022/03/21 02:25:26;;;;;;;0.20;0.20;;;;;;;3.10;69.71;102753.44;5025228;28;20054;-80
2022/03/21 02:28:02;;;;;;;0.22;0.22;;;;;;;3.08;66.27;102751.94;5018657;28;20048;-80
2022/03/21 02:30:38;;;;;;;0.20;0.20;;;;;;;3.04;66.80;102765.75;5017831;28;20042;-79
2022/03/21 02:33:07;;;;;;;0.22;0.22;;;;;;;2.99;66.11;102762.75;5032250;28;20037;-80
2022/03/21 02:35:44;;;;;;;0.30;0.30;;;;;;;3.03;66.98;102772.16;5022705;28;20513;-80
2022/03/21 02:38:19;;;;;;;0.20;0.20;;;;;;;2.98;68.49;102769.16;5021892;28;20520;-79
2022/03/21 02:40:54;;;;;;;0.20;0.20;;;;;;;2.96;69.87;102771.19;5037467;28;20046;-80
2022/03/21 02:43:27;;;;;;;0.10;0.10;;;;;;;2.91;68.76;102770.88;5026020;28;20050;-80
2022/03/21 02:46:04;;;;;;;0.30;0.30;;;;;;;2.89;69.19;102773.75;5030798;28;20049;-80
2022/03/21 02:48:38;;;;;;;0.20;0.20;;;;;;;2.82;70.02;102770.09;5014833;28;20060;-80
2022/03/21 02:51:12;;;;;;;0.30;0.30;;;;;;;2.77;73.36;102771.66;5017661;28;20057;-80
2022/03/21 02:53:46;;;;;;;0.25;0.25;;;;;;;2.74;73.89;102769.31;5031336;28;20049;-80
2022/03/21 02:56:21;;;;;;;0.30;0.30;;;;;;;2.74;73.15;102772.84;5014891;28;20054;-80
2022/03/21 02:58:54;;;;;;;0.20;0.20;;;;;;;2.80;75.88;102779.34;5020081;28;20505;-80
2022/03/21 03:01:28;;;;;;;0.20;0.20;;;;;;;2.69;71.24;102767.13;5024460;28;20042;-79
2022/03/21 03:04:01;;;;;;;0.20;0.20;;;;;;;2.68;73.02;102777.06;5024139;28;20045;-80
2022/03/21 03:06:29;;;;;;;0.20;0.20;;;;;;;2.66;70.05;102775.56;5021470;28;20430;-79
2022/03/21 03:09:02;;;;;;;0.25;0.25;;;;;;;2.71;71.48;102775.88;5014813;28;20054;-80
2022/03/21 03:11:38;;;;;;;0.20;0.20;;;;;;;2.69;70.91;102775.19;5024093;28;20422;-80
2022/03/21 03:14:12;;;;;;;0.30;0.30;;;;;;;2.66;72.52;102770.19;5025103;28;20533;-79
2022/03/21 03:16:40;;;;;;;0.20;0.20;;;;;;;2.64;70.54;102772.22;5032676;28;20424;-80
2022/03/21 03:19:08;;;;;;;0.20;0.20;;;;;;;2.52;73.65;102766.38;5022538;28;20046;-80
2022/03/21 03:21:44;;;;;;;0.20;0.20;;;;;;;2.54;74.18;102775.09;5017444;28;20053;-80
2022/03/21 03:24:20;;;;;;;0.20;0.20;;;;;;;2.46;78.16;102778.66;5030864;28;20050;-80
2022/03/21 03:26:55;;;;;;;0.22;0.22;;;;;;;2.46;77.62;102775.97;5027312;28;20055;-79
2022/03/21 03:29:28;;;;;;;0.20;0.20;;;;;;;2.38;80.85;102776.84;5026764;28;20593;-79
2022/03/21 03:32:03;;;;;;;0.20;0.20;;;;;;;2.28;80.50;102775.34;5027460;28;20046;-80
2022/03/21 03:34:32;;;;;;;0.15;0.15;;;;;;;2.32;79.42;102780.22;5019694;28;20259;-79
2022/03/21 03:37:05;;;;;;;0.20;0.20;;;;;;;2.37;79.80;102777.00;5025309;28;20045;-79
2022/03/21 03:39:39;;;;;;;0.20;0.20;;;;;;;2.33;83.11;102781.06;5017038;28;20046;-79
2022/03/21 03:42:13;;;;;;;0.20;0.20;;;;;;;2.25;82.72;102778.38;5017404;28;20049;-79
2022/03/21 03:44:41;;;;;;;0.28;0.28;;;;;;;2.21;87.53;102785.97;5023992;28;20041;-79
2022/03/21 03:47:14;;;;;;;0.20;0.20;;;;;;;2.12;84.52;102784.31;5027549;28;20516;-79
2022/03/21 03:49:47;;;;;;;0.17;0.17;;;;;;;2.11;82.70;102786.13;5017906;28;20382;-79
2022/03/21 03:52:20;;;;;;;0.20;0.20;;;;;;;2.16;83.11;102783.78;5021904;28;20420;-79
2022/03/21 03:54:54;;;;;;;0.20;0.20;;;;;;;2.14;88.34;102791.19;5026755;28;20052;-80
2022/03/21 03:57:28;;;;;;;0.20;0.20;;;;;;;2.18;78.74;102792.53;5025383;28;20041;-79
2022/03/21 04:00:01;;;;;;;0.30;0.30;;;;;;;2.15;78.45;102787.47;5020153;28;20422;-79
2022/03/21 04:05:30;;;;;;;0.17;0.17;;;;;;;2.24;75.33;102792.81;5018897;28;20044;-79
2022/03/21 04:08:04;;;;;;;0.30;0.30;;;;;;;2.27;83.09;102796.03;5023232;28;20449;-80
2022/03/21 04:10:32;;;;;;;0.20;0.20;;;;;;;2.23;76.89;102794.69;5025149;28;20060;-80
2022/03/21 04:13:06;;;;;;;0.20;0.20;;;;;;;2.18;80.70;102791.66;5024984;28;20046;-80
2022/03/21 04:15:40;;;;;;;0.20;0.20;;;;;;;2.12;82.00;102784.31;5023635;28;20041;-80
2022/03/21 04:18:08;;;;;;;0.20;0.20;;;;;;;2.16;81.80;102782.97;5019022;28;20053;-79
2022/03/21 04:20:37;;;;;;;0.20;0.20;;;;;;;2.14;80.12;102793.03;5018967;28;20054;-79
2022/03/21 04:23:05;;;;;;;0.20;0.20;;;;;;;2.15;76.74;102784.78;5013600;28;20062;-80
2022/03/21 04:25:39;;;;;;;0.20;0.20;;;;;;;2.15;82.00;102792.03;5012923;28;20037;-80
2022/03/21 04:28:12;;;;;;;0.20;0.20;;;;;;;2.11;79.33;102783.44;5017533;28;20058;-79
2022/03/21 04:30:45;;;;;;;0.20;0.20;;;;;;;2.10;82.18;102787.16;5019033;28;20057;-80
2022/03/21 04:33:19;;;;;;;0.25;0.25;;;;;;;2.14;78.83;102791.19;5019671;28;20053;-79
2022/03/21 04:35:52;;;;;;;0.20;0.20;;;;;;;2.11;82.11;102794.19;5028692;28;20057;-79
2022/03/21 04:38:20;;;;;;;0.15;0.15;;;;;;;2.02;83.75;102788.00;5034593;28;20045;-80
2022/03/21 04:40:53;;;;;;;0.20;0.20;;;;;;;2.03;80.66;102788.84;5031532;28;20064;-79
2022/03/21 04:43:28;;;;;;;0.28;0.28;;;;;;;2.02;81.34;102788.00;5022244;28;20042;-80
2022/03/21 04:46:01;;;;;;;1.17;0.20;;;;;;;2.00;83.26;102784.69;5018711;28;20045;-79
2022/03/21 04:48:34;;;;;;;0.20;0.20;;;;;;;1.92;83.62;102776.63;5017565;28;20048;-80
2022/03/21 04:51:07;;;;;;;0.20;0.20;;;;;;;1.92;84.41;102790.06;5017874;28;20049;-79
2022/03/21 04:53:40;;;;;;;0.20;0.20;;;;;;;1.91;87.77;102803.66;5019216;28;20489;-79
2022/03/21 04:56:14;;;;;;;0.20;0.20;;;;;;;1.87;88.83;102811.19;5024283;28;20045;-79
2022/03/21 04:58:48;;;;;;;0.20;0.20;;;;;;;1.77;89.46;102807.84;5019657;28;20481;-80
2022/03/21 05:01:21;;;;;;;0.10;0.10;;;;;;;1.78;89.35;102804.16;5020578;28;20046;-79
2022/03/21 05:03:55;;;;;;;0.20;0.20;;;;;;;1.79;93.22;102806.66;5031564;28;20057;-79
2022/03/21 05:06:24;;;;;;;0.30;0.30;;;;;;;1.74;96.39;102803.66;5024933;28;20057;-79
2022/03/21 05:08:53;;;;;;;0.20;0.20;;;;;;;1.77;89.14;102797.09;5032865;28;20061;-79
2022/03/21 05:11:21;;;;;;;0.20;0.20;;;;;;;1.77;89.21;102807.84;5032474;28;20050;-80
2022/03/21 05:13:55;;;;;;;0.13;0.13;;;;;;;1.80;89.99;102811.03;5034036;28;20525;-80
2022/03/21 05:16:29;;;;;;;0.20;0.20;;;;;;;1.69;92.34;102806.84;5031222;28;20045;-79
2022/03/21 05:19:02;;;;;;;0.20;0.20;;;;;;;1.68;89.79;102820.44;5021050;28;20049;-79
2022/03/21 05:21:31;;;;;;;0.30;0.30;;;;;;;1.70;93.53;102827.31;5022699;28;20049;-80
2022/03/21 05:32:36;;;;;;;0.20;0.20;;;;;;;1.60;95.99;102813.22;5013817;28;20692;-80
2022/03/21 05:38:00;;;;;;;0.20;0.20;;;;;;;1.67;98.97;102816.91;5030136;28;20041;-80
2022/03/21 05:40:34;;;;;;;0.20;0.20;;;;;;;1.66;98.79;102815.22;5024381;28;20049;-80
2022/03/21 05:43:03;;;;;;;0.20;0.20;;;;;;;1.74;94.79;102832.34;5029426;28;20042;-80
2022/03/21 05:45:37;;;;;;;0.20;0.20;;;;;;;1.77;94.00;102832.00;5021312;28;20057;-79
2022/03/21 05:51:01;;;;;;;0.30;0.30;;;;;;;1.91;90.01;102841.25;5035764;28;20062;-80
2022/03/21 05:53:34;;;;;;;0.20;0.20;;;;;;;1.91;91.16;102836.72;5020936;28;20052;-80
2022/03/21 05:56:07;;;;;;;0.28;0.28;;;;;;;1.97;90.71;102848.63;5022759;28;20053;-80
2022/03/21 05:58:40;;;;;;;0.20;0.20;;;;;;;1.97;91.46;102827.97;5027601;28;20049;-79
2022/03/21 06:01:18;;;;;;;0.20;0.20;;;;;;;1.86;91.69;102818.44;5019709;28;20038;-80
2022/03/21 06:03:48;;;;;;;0.38;0.25;;;;;;;2.08;97.03;102831.31;5024410;28;20041;-80
2022/03/21 06:06:22;;;;;;;0.20;0.20;;;;;;;2.07;90.53;102833.16;5015593;28;20058;-80
2022/03/21 06:08:55;;;;;;;0.20;0.20;;;;;;;2.14;91.99;102809.13;5022918;28;20554;-80
2022/03/21 06:11:23;;;;;;;0.28;0.28;;;;;;;2.28;87.81;102824.56;5035978;28;20512;-79
2022/03/21 06:13:51;;;;;;;0.20;0.20;;;;;;;2.35;88.87;102830.94;5021180;28;20045;-80
2022/03/21 06:16:25;;;;;;;0.20;0.20;;;;;;;2.33;88.49;102826.72;5021856;28;20042;-80
2022/03/21 06:19:00;;;;;;;0.20;0.20;;;;;;;2.46;88.50;102837.78;5025995;28;20038;-80
2022/03/21 06:21:33;;;;;;;0.20;0.20;;;;;;;2.49;91.56;102829.38;5032063;28;20042;-79
2022/03/21 06:24:01;;;;;;;0.20;0.20;;;;;;;2.53;87.73;102833.41;5039111;28;20065;-80
2022/03/21 06:26:34;;;;;;;0.30;0.30;;;;;;;2.57;83.75;102835.72;5015858;28;20502;-79
2022/03/21 06:29:08;;;;;;;0.20;0.20;;;;;;;2.70;80.83;102836.84;5021854;28;20084;-79
2022/03/21 06:31:43;;;;;;;0.10;0.10;;;;;;;2.84;78.39;102843.34;5024933;28;20508;-80
2022/03/21 06:34:16;;;;;;;0.20;0.20;;;;;;;2.93;77.25;102844.19;5015489;28;20054;-79
2022/03/21 06:36:44;;;;;;;0.17;0.17;;;;;;;2.95;80.20;102854.75;5030456;28;20037;-79
2022/03/21 06:39:17;;;;;;;0.20;0.20;;;;;;;3.06;79.24;102863.25;5020627;28;20049;-79
2022/03/21 06:41:46;;;;;;;0.20;0.20;;;;;;;3.14;77.95;102859.69;5044056;28;20075;-79
2022/03/21 06:44:21;;;;;;;0.20;0.20;;;;;;;3.23;75.80;102847.88;5022668;28;20077;-79
2022/03/21 06:46:57;;;;;;;0.20;0.20;;;;;;;3.30;74.16;102853.41;5024966;28;20068;-79
2022/03/21 06:49:30;;;;;;;0.20;0.20;;;;;;;3.35;74.67;102848.31;5023806;28;20067;-80
2022/03/21 06:51:58;;;;;;;0.20;0.20;;;;;;;3.36;73.22;102844.59;5021281;28;20524;-79
2022/03/21 06:54:33;;;;;;;0.20;0.20;;;;;;;3.45;71.12;102850.75;5024233;28;20060;-80
2022/03/21 06:57:06;;;;;;;0.20;0.20;;;;;;;3.48;70.78;102854.94;5026698;28;20037;-80
2022/03/21 06:59:40;;;;;;;0.25;0.25;;;;;;;3.52;68.95;102843.66;5024230;28;20045;-80
2022/03/21 07:02:17;;;;;;;0.20;0.20;;;;;;;3.56;71.17;102853.06;5026069;28;20045;-80
2022/03/21 07:04:50;;;;;;;0.10;0.10;;;;;;;3.56;70.42;102850.38;5018952;28;20053;-79
2022/03/21 07:07:18;;;;;;;0.30;0.30;;;;;;;3.67;65.89;102841.00;5023349;28;20137;-80
2022/03/21 07:09:51;;;;;;;0.20;0.20;;;;;;;3.67;67.33;102834.78;5013782;28;20049;-81
2022/03/21 07:12:24;;;;;;;0.20;0.20;;;;;;;3.79;68.52;102843.28;5033469;28;20406;-78
2022/03/21 07:14:57;;;;;;;0.20;0.20;;;;;;;3.91;63.83;102839.16;5036923;28;20079;-80
2022/03/21 07:17:27;;;;;;;0.30;0.30;;;;;;;4.00;66.28;102834.53;5025716;28;20072;-80
2022/03/21 07:20:00;;;;;;;0.85;0.20;;;;;;;3.89;68.20;102825.00;5019763;28;20054;-80
2022/03/21 07:22:33;;;;;;;0.30;0.30;;;;;;;3.98;66.74;102840.09;5016347;28;20053;-80
2022/03/21 07:25:08;;;;;;;0.30;0.30;;;;;;;3.96;66.65;102836.72;5028569;28;20667;-80
2022/03/21 07:27:36;;;;;;;0.20;0.20;;;;;;;4.02;66.28;102846.78;5015511;28;20458;-81
2022/03/21 07:30:05;;;;;;;0.20;0.20;;;;;;;4.17;62.83;102846.81;5012636;28;20058;-80
2022/03/21 07:32:35;;;;;;;0.30;0.30;;;;;;;4.15;62.60;102856.94;5009197;28;20103;-79
2022/03/21 07:35:09;;;;;;;0.20;0.20;;;;;;;4.12;63.11;102854.63;5005123;28;20045;-79
2022/03/21 07:37:43;;;;;;;0.20;0.20;;;;;;;4.21;63.58;102853.53;5001579;28;20053;-79
2022/03/21 07:40:12;;;;;;;0.20;0.20;;;;;;;4.22;65.10;102852.47;4996615;28;20073;-79
2022/03/21 07:42:47;;;;;;;0.20;0.20;;;;;;;4.24;63.82;102860.41;4999841;28;20053;-80
2022/03/21 07:48:12;;;;;;;0.20;0.20;;;;;;;4.28;64.03;102855.47;5009513;28;20569;-80
2022/03/21 07:50:41;;;;;;;0.30;0.30;;;;;;;4.35;64.15;102864.50;4998645;28;20068;-80
2022/03/21 07:53:14;;;;;;;0.20;0.20;;;;;;;4.29;68.91;102868.75;5003229;28;20053;-80
2022/03/21 07:55:48;;;;;;;0.20;0.20;;;;;;;4.29;63.56;102876.84;5002588;28;20056;-80
2022/03/21 07:58:22;;;;;;;0.20;0.20;;;;;;;4.28;64.21;102875.19;5001217;28;20052;-80
2022/03/21 08:00:58;;;;;;;0.20;0.20;;;;;;;4.31;63.29;102876.66;5005490;28;20498;-80
2022/03/21 08:03:33;;;;;;;0.20;0.20;;;;;;;4.23;63.25;102878.41;4998755;28;20056;-79
2022/03/21 08:06:10;;;;;;;0.20;0.20;;;;;;;4.22;64.97;102878.59;4991870;28;20057;-80
2022/03/21 08:08:44;;;;;;;0.30;0.30;;;;;;;4.24;68.23;102874.72;5002557;28;20052;-82
2022/03/21 08:11:12;;;;;;;0.30;0.30;;;;;;;4.37;66.38;102875.94;4999728;28;20057;-82
2022/03/21 08:13:49;;;;;;;0.20;0.20;;;;;;;4.33;67.28;102853.91;4999823;28;20379;-80
2022/03/21 08:16:22;;;;;;;;;;;;;;;4.41;67.22;102875.38;5001706;28;20049;-81
2022/03/21 08:18:57;;;;;;;0.20;0.20;;;;;;;4.43;68.57;102884.13;4997961;28;20405;-80
2022/03/21 08:21:30;;;;;;;0.20;0.20;;;;;;;4.50;68.69;102878.84;4998801;28;20061;-80
2022/03/21 08:24:04;;;;;;;0.17;0.17;;;;;;;4.61;67.31;102882.91;5001004;28;20046;-80
2022/03/21 08:26:37;;;;;;;0.20;0.20;;;;;;;4.77;63.86;102882.72;5003957;28;20060;-80
2022/03/21 08:29:10;;;;;;;0.20;0.20;;;;;;;4.78;69.93;102875.50;5010519;28;20891;-80
2022/03/21 08:31:44;;;;;;;0.20;0.20;;;;;;;4.77;63.24;102871.94;4996597;28;20058;-80
2022/03/21 08:34:14;;;;;;;0.17;0.17;;;;;;;4.97;67.38;102878.63;4994685;28;20050;-81
2022/03/21 08:36:42;;;;;;;0.25;0.25;;;;;;;5.10;63.22;102876.09;4993919;28;20064;-80
2022/03/21 08:39:10;;;;;;;0.10;0.10;;;;;;;5.08;63.36;102867.34;4993406;28;20577;-81
2022/03/21 08:41:44;;;;;;;0.17;0.17;;;;;;;5.10;64.16;102868.00;5000714;28;20970;-80
2022/03/21 08:44:19;;;;;;;0.30;0.30;;;;;;;5.16;62.44;102856.44;5002752;28;20079;-80
2022/03/21 08:46:52;;;;;;;0.20;0.20;;;;;;;5.26;60.03;102861.53;5001962;28;20489;-80
2022/03/21 08:49:33;;;;;;;0.30;0.30;;;;;;;5.37;61.68;102847.56;4996212;28;20058;-80
2022/03/21 08:52:07;;;;;;;0.20;0.20;;;;;;;5.56;57.64;102854.16;4994918;28;20142;-80
2022/03/21 08:54:41;;;;;;;0.20;0.20;;;;;;;5.60;59.29;102841.94;5001969;28;20056;-80
2022/03/21 08:57:14;;;;;;;0.20;0.20;;;;;;;5.69;57.29;102837.28;4997103;28;20441;-80
2022/03/21 08:59:47;;;;;;;0.30;0.30;;;;;;;5.73;57.62;102848.50;4998309;28;20057;-80
2022/03/21 09:02:17;;;;;;;0.20;0.20;;;;;;;5.74;58.61;102853.72;4996713;28;20057;-80
2022/03/21 09:04:51;;;;;;;0.28;0.28;;;;;;;5.79;57.19;102843.16;4997411;28;20061;-79
2022/03/21 09:07:20;;;;;;;0.20;0.20;;;;;;;5.86;56.97;102847.81;4996963;28;20069;-78
2022/03/21 09:09:53;;;;;;;0.20;0.20;;;;;;;6.00;57.61;102838.81;5001774;28;20490;-80
2022/03/21 09:12:21;;;;;;;0.10;0.10;;;;;;;6.10;54.36;102842.03;4996749;28;20056;-80
2022/03/21 09:14:55;;;;;;;0.20;0.20;;;;;;;6.12;56.13;102842.63;5000400;28;20108;-79
2022/03/21 09:17:23;;;;;;;0.30;0.20;;;;;;;6.18;56.17;102845.59;4995487;28;20057;-82
2022/03/21 09:19:53;;;;;;;0.20;0.20;;;;;;;6.25;55.87;102839.19;4995128;28;20071;-80
2022/03/21 09:22:22;;;;;;;0.20;0.20;;;;;;;6.37;51.86;102835.97;4990675;28;20057;-80
2022/03/21 09:24:55;;;;;;;0.30;0.30;;;;;;;6.50;54.02;102833.31;4999018;28;21112;-80
2022/03/21 09:27:28;;;;;;;0.20;0.20;;;;;;;6.41;53.13;102827.22;4996689;28;20065;-80
2022/03/21 09:29:57;;;;;;;0.20;0.20;;;;;;;6.47;54.19;102828.31;4992802;28;20060;-79
2022/03/21 09:32:30;;;;;;;0.20;0.20;;;;;;;6.62;54.96;102822.78;5000421;28;20049;-80
2022/03/21 09:34:59;;;;;;;0.20;0.20;;;;;;;6.78;54.92;102832.41;5008224;28;20107;-80
2022/03/21 09:37:33;;;;;;;0.20;0.20;;;;;;;6.78;55.55;102829.69;4999772;28;20057;-79
2022/03/21 09:40:07;;;;;;;0.20;0.20;;;;;;;6.84;52.64;102830.78;5000052;28;20728;-80
2022/03/21 09:42:36;;;;;;;0.50;0.30;;;;;;;6.90;55.42;102827.28;4995794;28;20076;-79
2022/03/21 09:45:11;;;;;;;0.20;0.20;;;;;;;6.94;55.51;102818.53;5019009;28;20049;-79
2022/03/21 09:50:42;;;;;;;0.25;0.25;;;;;;;6.92;53.19;102815.19;4997771;28;20057;-79
2022/03/21 09:53:17;;;;;;;0.20;0.20;;;;;;;7.01;54.21;102815.03;4996691;28;20077;-78
2022/03/21 09:55:50;;;;;;;0.20;0.20;;;;;;;7.00;53.90;102813.34;4998477;28;20049;-80
2022/03/21 09:58:23;;;;;;;0.10;0.10;;;;;;;6.97;51.62;102811.88;5004375;28;20045;-80
2022/03/21 10:00:56;;;;;;;0.17;0.17;;;;;;;7.06;52.86;102809.84;4995675;28;20951;-79
2022/03/21 10:03:30;;;;;;;0.30;0.30;;;;;;;7.07;52.10;102803.38;4998715;28;20063;-78
2022/03/21 10:06:26;;;;;;;0.20;0.20;;;;;;;7.20;52.25;102805.28;4997651;28;20061;-78
2022/03/21 10:09:08;;;;;;;0.20;0.20;;;;;;;7.24;51.30;102793.00;4998129;28;20046;-78
2022/03/21 10:11:50;;;;;;;0.20;0.20;;;;;;;7.41;51.79;102801.56;4997015;28;20056;-79
2022/03/21 10:14:28;;;;;;;0.20;0.20;;;;;;;7.65;50.42;102800.13;5011186;28;20065;-78
2022/03/21 10:16:59;;;;;;;0.25;0.25;;;;;;;7.64;48.90;102793.88;5001932;28;20057;-78
2022/03/21 10:19:28;;;;;;;0.35;0.20;;;;;;;7.75;47.96;102797.03;5010325;28;20791;-79
2022/03/21 10:22:07;;;;;;;0.20;0.20;;;;;;;7.89;46.39;102789.72;5006508;28;20068;-80
2022/03/21 10:24:43;;;;;;;0.20;0.20;;;;;;;7.77;46.70;102787.63;5010736;28;20053;-79
2022/03/21 10:27:30;;;;;;;0.45;0.30;;;;;;;7.85;48.80;102796.59;5005269;28;20057;-80
2022/03/21 10:30:08;;;;;;;0.20;0.20;;;;;;;8.06;48.58;102809.09;5012611;28;20061;-80
2022/03/21 10:32:38;;;;;;;0.28;0.28;;;;;;;8.15;46.87;102805.94;5014265;28;20053;-80
2022/03/21 10:35:14;;;;;;;0.22;0.22;;;;;;;8.10;47.07;102772.38;4999418;28;20060;-78
2022/03/21 10:37:51;;;;;;;0.20;0.20;;;;;;;8.10;48.24;102785.94;4998037;28;20064;-79
2022/03/21 10:40:31;;;;;;;0.20;0.20;;;;;;;8.05;47.68;102783.88;5003046;28;20068;-79
2022/03/21 10:43:10;;;;;;;0.20;0.20;;;;;;;8.16;47.74;102788.63;4996893;28;20057;-79
2022/03/21 10:45:46;;;;;;;0.17;0.17;;;;;;;8.21;46.86;102792.59;5000908;28;20058;-79
2022/03/21 10:48:21;;;;;;;0.20;0.20;;;;;;;8.28;47.44;102786.09;5009792;28;20045;-79
2022/03/21 10:50:56;;;;;;;0.20;0.20;;;;;;;8.16;45.17;102780.50;5005095;28;20056;-80
2022/03/21 10:53:38;;;;;;;0.22;0.22;;;;;;;8.26;46.21;102780.06;5006087;28;20075;-79
2022/03/21 10:56:12;;;;;;;0.20;0.20;;;;;;;8.57;46.29;102797.50;4999898;28;20057;-80
2022/03/21 10:58:48;;;;;;;0.20;0.20;;;;;;;8.76;45.09;102789.53;4998044;28;20734;-79
2022/03/21 11:01:27;;;;;;;0.20;0.20;;;;;;;8.77;44.46;102775.72;4998270;28;20049;-80
2022/03/21 11:04:02;;;;;;;0.20;0.20;;;;;;;8.95;44.21;102790.47;5005265;28;20068;-80
2022/03/21 11:06:35;;;;;;;0.20;0.20;;;;;;;8.98;44.50;102790.03;4996664;28;20060;-79
2022/03/21 11:09:10;;;;;;;0.20;0.20;;;;;;;9.03;44.90;102787.50;5001564;28;20056;-79
2022/03/21 11:11:38;;;;;;;0.20;0.20;;;;;;;9.10;43.73;102782.88;5004873;28;20049;-80
2022/03/21 11:14:12;;;;;;;0.20;0.20;;;;;;;9.23;45.81;102787.38;5009137;28;20053;-80
2022/03/21 11:16:45;;;;;;;0.20;0.20;;;;;;;9.23;45.71;102781.94;4998661;28;20046;-79
2022/03/21 11:19:14;;;;;;;0.20;0.20;;;;;;;9.27;46.24;102777.75;5003440;28;20057;-79
2022/03/21 11:21:43;;;;;;;0.20;0.20;;;;;;;9.12;44.77;102783.47;5001727;28;20057;-80
2022/03/21 11:24:18;;;;;;;0.20;0.20;;;;;;;9.06;44.64;102786.22;5003881;28;20064;-79
2022/03/21 11:26:57;;;;;;;0.30;0.30;;;;;;;9.03;45.98;102773.91;4998625;28;20053;-79
2022/03/21 11:29:42;;;;;;;0.20;0.20;;;;;;;9.10;44.54;102776.59;5001058;28;20651;-80
2022/03/21 11:32:25;;;;;;;0.20;0.20;;;;;;;9.29;46.40;102770.19;5000245;28;20117;-80
2022/03/21 11:35:07;;;;;;;0.20;0.20;;;;;;;9.40;43.81;102763.22;4993873;28;20068;-80
2022/03/21 11:37:42;;;;;;;0.20;0.20;;;;;;;9.53;44.14;102776.72;4994778;28;20048;-80
2022/03/21 11:40:32;;;;;;;0.20;0.20;;;;;;;9.34;43.73;102777.69;5003894;28;20076;-79
2022/03/21 11:43:26;;;;;;;0.30;0.30;;;;;;;9.50;42.02;102771.72;5007730;28;20061;-79
2022/03/21 11:46:21;;;;;;;0.20;0.20;;;;;;;9.53;42.83;102765.84;4997754;28;20042;-80
2022/03/21 11:48:54;;;;;;;0.20;0.20;;;;;;;9.55;43.73;102762.06;5001889;28;21873;-79
2022/03/21 11:51:39;;;;;;;0.20;0.20;;;;;;;9.59;41.92;102766.03;5014381;28;20053;-79
2022/03/21 11:54:29;;;;;;;0.20;0.20;;;;;;;9.74;43.55;102762.97;5003004;28;20053;-79
2022/03/21 11:57:04;;;;;;;0.17;0.17;;;;;;;9.85;42.50;102752.16;5004074;28;20058;-79
2022/03/21 11:59:55;;;;;;;0.20;0.20;;;;;;;9.93;44.08;102761.94;5022163;28;20076;-79
2022/03/21 12:02:56;;;;;;;0.28;0.28;;;;;;;9.87;44.36;102749.22;5003470;28;20050;-81
2022/03/21 12:05:52;;;;;;;0.20;0.20;;;;;;;9.87;42.46;102754.66;5001849;28;20049;-79
2022/03/21 12:08:51;;;;;;;0.20;0.20;;;;;;;9.78;41.49;102751.41;4996621;28;20056;-79
2022/03/21 12:12:01;;;;;;;0.20;0.20;;;;;;;9.96;41.55;102747.88;5010698;28;20037;-79
2022/03/21 12:14:40;;;;;;;0.22;0.22;;;;;;;9.97;42.34;102746.00;5006286;28;20528;-81
2022/03/21 12:17:32;;;;;;;0.20;0.20;;;;;;;9.92;42.96;102751.28;4998925;28;20635;-79
2022/03/21 12:20:05;;;;;;;;;;;;;;;9.82;42.09;102744.47;5002343;28;20060;-79
2022/03/21 12:22:34;;;;;;;0.20;0.20;;;;;;;9.85;44.28;102745.91;4994262;28;19929;-80
2022/03/21 12:25:05;;;;;;;0.20;0.20;;;;;;;10.02;41.46;102746.97;4995561;28;20046;-80
2022/03/21 12:27:40;;;;;;;0.20;0.20;;;;;;;10.05;42.03;102745.69;4995331;28;20057;-80
2022/03/21 12:30:41;;;;;;;0.20;0.20;;;;;;;10.04;42.85;102741.34;4999441;28;20067;-79
2022/03/21 12:33:27;;;;;;;0.20;0.20;;;;;;;9.98;44.32;102737.59;4977905;28;20058;-80